sensor_id;sensor_type;location;lat;lon;timestamp;P1;durP1;ratioP1;P2;durP2;ratioP2
14975;SDS011;7584;60.468;25.126;2022-11-09T00:01:38;2.10;;;1.07;;
14975;SDS011;7584;60.468;25.126;2022-11-09T00:04:04;2.43;;;1.20;;
14975;SDS011;7584;60.468;25.126;2022-11-09T00:06:30;1.60;;;1.17;;
14975;SDS011;7584;60.468;25.126;2022-11-09T00:08:55;1.20;;;1.10;;
14975;SDS011;7584;60.468;25.126;2022-11-09T00:11:20;1.50;;;1.10;;
14975;SDS011;7584;60.468;25.126;2022-11-09T00:13:46;3.87;;;1.50;;
14975;SDS011;7584;60.468;25.126;2022-11-09T00:16:13;2.07;;;1.37;;
14975;SDS011;7584;60.468;25.126;2022-11-09T00:18:38;1.80;;;1.53;;
14975;SDS011;7584;60.468;25.126;2022-11-09T00:21:07;2.00;;;1.37;;
14975;SDS011;7584;60.468;25.126;2022-11-09T00:23:33;3.60;;;1.50;;
14975;SDS011;7584;60.468;25.126;2022-11-09T00:25:59;2.23;;;1.20;;
14975;SDS011;7584;60.468;25.126;2022-11-09T00:28:25;1.87;;;1.40;;
14975;SDS011;7584;60.468;25.126;2022-11-09T00:30:50;3.23;;;1.50;;
14975;SDS011;7584;60.468;25.126;2022-11-09T00:33:15;3.63;;;1.30;;
14975;SDS011;7584;60.468;25.126;2022-11-09T00:35:41;8.77;;;1.47;;
14975;SDS011;7584;60.468;25.126;2022-11-09T00:38:06;2.57;;;1.47;;
14975;SDS011;7584;60.468;25.126;2022-11-09T00:40:31;1.40;;;1.30;;
14975;SDS011;7584;60.468;25.126;2022-11-09T00:42:57;1.20;;;1.10;;
14975;SDS011;7584;60.468;25.126;2022-11-09T00:45:22;1.20;;;1.10;;
14975;SDS011;7584;60.468;25.126;2022-11-09T00:47:47;1.60;;;1.50;;
14975;SDS011;7584;60.468;25.126;2022-11-09T00:50:12;3.13;;;1.47;;
14975;SDS011;7584;60.468;25.126;2022-11-09T00:52:38;2.73;;;1.37;;
14975;SDS011;7584;60.468;25.126;2022-11-09T00:55:03;2.80;;;1.20;;
14975;SDS011;7584;60.468;25.126;2022-11-09T00:57:28;2.43;;;1.20;;
14975;SDS011;7584;60.468;25.126;2022-11-09T00:59:54;1.53;;;1.43;;
14975;SDS011;7584;60.468;25.126;2022-11-09T01:02:19;1.60;;;1.30;;
14975;SDS011;7584;60.468;25.126;2022-11-09T01:04:44;1.83;;;1.30;;
14975;SDS011;7584;60.468;25.126;2022-11-09T01:07:09;1.23;;;1.10;;
14975;SDS011;7584;60.468;25.126;2022-11-09T01:09:35;2.40;;;1.30;;
14975;SDS011;7584;60.468;25.126;2022-11-09T01:12:00;2.57;;;1.50;;
14975;SDS011;7584;60.468;25.126;2022-11-09T01:14:25;1.63;;;1.03;;
14975;SDS011;7584;60.468;25.126;2022-11-09T01:16:51;2.07;;;1.20;;
14975;SDS011;7584;60.468;25.126;2022-11-09T01:19:16;6.00;;;1.70;;
14975;SDS011;7584;60.468;25.126;2022-11-09T01:21:41;1.67;;;1.20;;
14975;SDS011;7584;60.468;25.126;2022-11-09T01:24:07;3.37;;;1.17;;
14975;SDS011;7584;60.468;25.126;2022-11-09T01:26:33;2.10;;;1.20;;
14975;SDS011;7584;60.468;25.126;2022-11-09T01:28:58;1.70;;;1.20;;
14975;SDS011;7584;60.468;25.126;2022-11-09T01:31:23;3.67;;;1.20;;
14975;SDS011;7584;60.468;25.126;2022-11-09T01:33:49;1.60;;;1.40;;
14975;SDS011;7584;60.468;25.126;2022-11-09T01:36:21;2.27;;;1.33;;
14975;SDS011;7584;60.468;25.126;2022-11-09T01:38:46;1.83;;;1.23;;
14975;SDS011;7584;60.468;25.126;2022-11-09T01:41:16;1.97;;;1.43;;
14975;SDS011;7584;60.468;25.126;2022-11-09T01:43:41;2.77;;;1.30;;
14975;SDS011;7584;60.468;25.126;2022-11-09T01:46:13;2.00;;;1.10;;
14975;SDS011;7584;60.468;25.126;2022-11-09T01:48:42;1.77;;;1.20;;
14975;SDS011;7584;60.468;25.126;2022-11-09T01:51:17;4.77;;;1.57;;
14975;SDS011;7584;60.468;25.126;2022-11-09T01:53:44;2.57;;;1.37;;
14975;SDS011;7584;60.468;25.126;2022-11-09T01:56:11;2.60;;;1.37;;
14975;SDS011;7584;60.468;25.126;2022-11-09T01:58:41;1.73;;;1.03;;
14975;SDS011;7584;60.468;25.126;2022-11-09T02:01:08;3.13;;;1.40;;
14975;SDS011;7584;60.468;25.126;2022-11-09T02:03:39;1.57;;;1.30;;
14975;SDS011;7584;60.468;25.126;2022-11-09T02:06:06;2.53;;;1.27;;
14975;SDS011;7584;60.468;25.126;2022-11-09T02:08:32;1.90;;;1.40;;
14975;SDS011;7584;60.468;25.126;2022-11-09T02:11:00;2.03;;;1.30;;
14975;SDS011;7584;60.468;25.126;2022-11-09T02:13:27;2.03;;;1.40;;
14975;SDS011;7584;60.468;25.126;2022-11-09T02:15:53;5.03;;;1.47;;
14975;SDS011;7584;60.468;25.126;2022-11-09T02:18:18;1.90;;;1.30;;
14975;SDS011;7584;60.468;25.126;2022-11-09T02:20:48;1.90;;;1.40;;
14975;SDS011;7584;60.468;25.126;2022-11-09T02:23:13;1.37;;;1.10;;
14975;SDS011;7584;60.468;25.126;2022-11-09T02:25:39;2.50;;;1.60;;
14975;SDS011;7584;60.468;25.126;2022-11-09T02:28:04;2.73;;;1.60;;
14975;SDS011;7584;60.468;25.126;2022-11-09T02:30:30;4.57;;;1.30;;
14975;SDS011;7584;60.468;25.126;2022-11-09T02:32:56;3.10;;;1.30;;
14975;SDS011;7584;60.468;25.126;2022-11-09T02:35:21;3.27;;;1.67;;
14975;SDS011;7584;60.468;25.126;2022-11-09T02:37:47;2.13;;;1.60;;
14975;SDS011;7584;60.468;25.126;2022-11-09T02:40:14;5.27;;;1.60;;
14975;SDS011;7584;60.468;25.126;2022-11-09T02:42:41;2.03;;;1.70;;
14975;SDS011;7584;60.468;25.126;2022-11-09T02:45:06;1.87;;;1.53;;
14975;SDS011;7584;60.468;25.126;2022-11-09T02:47:32;2.20;;;1.70;;
14975;SDS011;7584;60.468;25.126;2022-11-09T02:49:57;2.37;;;1.50;;
14975;SDS011;7584;60.468;25.126;2022-11-09T02:52:22;1.60;;;1.50;;
14975;SDS011;7584;60.468;25.126;2022-11-09T02:54:48;1.73;;;1.40;;
14975;SDS011;7584;60.468;25.126;2022-11-09T02:57:13;3.03;;;1.53;;
14975;SDS011;7584;60.468;25.126;2022-11-09T02:59:38;2.33;;;1.63;;
14975;SDS011;7584;60.468;25.126;2022-11-09T03:02:04;2.30;;;1.67;;
14975;SDS011;7584;60.468;25.126;2022-11-09T03:04:29;2.20;;;1.50;;
14975;SDS011;7584;60.468;25.126;2022-11-09T03:06:54;2.53;;;1.70;;
14975;SDS011;7584;60.468;25.126;2022-11-09T03:09:20;2.77;;;1.77;;
14975;SDS011;7584;60.468;25.126;2022-11-09T03:11:45;2.30;;;1.50;;
14975;SDS011;7584;60.468;25.126;2022-11-09T03:14:10;2.57;;;1.53;;
14975;SDS011;7584;60.468;25.126;2022-11-09T03:16:36;2.17;;;1.37;;
14975;SDS011;7584;60.468;25.126;2022-11-09T03:19:01;2.23;;;1.70;;
14975;SDS011;7584;60.468;25.126;2022-11-09T03:21:27;1.70;;;1.33;;
14975;SDS011;7584;60.468;25.126;2022-11-09T03:23:52;2.10;;;1.53;;
14975;SDS011;7584;60.468;25.126;2022-11-09T03:26:18;2.00;;;1.40;;
14975;SDS011;7584;60.468;25.126;2022-11-09T03:28:43;1.97;;;1.57;;
14975;SDS011;7584;60.468;25.126;2022-11-09T03:31:08;1.37;;;1.27;;
14975;SDS011;7584;60.468;25.126;2022-11-09T03:33:34;2.83;;;1.40;;
14975;SDS011;7584;60.468;25.126;2022-11-09T03:35:59;1.23;;;1.10;;
14975;SDS011;7584;60.468;25.126;2022-11-09T03:38:25;1.73;;;1.20;;
14975;SDS011;7584;60.468;25.126;2022-11-09T03:40:50;1.43;;;0.93;;
14975;SDS011;7584;60.468;25.126;2022-11-09T03:43:15;1.20;;;1.10;;
14975;SDS011;7584;60.468;25.126;2022-11-09T03:45:41;1.30;;;1.10;;
14975;SDS011;7584;60.468;25.126;2022-11-09T03:48:06;2.03;;;1.10;;
14975;SDS011;7584;60.468;25.126;2022-11-09T03:50:32;1.50;;;1.20;;
14975;SDS011;7584;60.468;25.126;2022-11-09T03:52:58;1.50;;;1.30;;
14975;SDS011;7584;60.468;25.126;2022-11-09T03:55:24;1.93;;;1.30;;
14975;SDS011;7584;60.468;25.126;2022-11-09T03:57:49;1.30;;;1.20;;
14975;SDS011;7584;60.468;25.126;2022-11-09T04:00:15;1.57;;;1.30;;
14975;SDS011;7584;60.468;25.126;2022-11-09T04:02:41;1.23;;;1.13;;
14975;SDS011;7584;60.468;25.126;2022-11-09T04:05:07;1.10;;;1.00;;
14975;SDS011;7584;60.468;25.126;2022-11-09T04:07:32;2.10;;;1.00;;
14975;SDS011;7584;60.468;25.126;2022-11-09T04:09:57;2.60;;;1.17;;
14975;SDS011;7584;60.468;25.126;2022-11-09T04:12:23;1.80;;;1.10;;
14975;SDS011;7584;60.468;25.126;2022-11-09T04:14:48;2.53;;;0.97;;
14975;SDS011;7584;60.468;25.126;2022-11-09T04:17:14;1.30;;;1.00;;
14975;SDS011;7584;60.468;25.126;2022-11-09T04:19:39;1.77;;;0.90;;
14975;SDS011;7584;60.468;25.126;2022-11-09T04:22:04;2.43;;;1.57;;
14975;SDS011;7584;60.468;25.126;2022-11-09T04:24:30;2.67;;;1.80;;
14975;SDS011;7584;60.468;25.126;2022-11-09T04:26:56;1.57;;;1.23;;
14975;SDS011;7584;60.468;25.126;2022-11-09T04:29:21;0.97;;;0.83;;
14975;SDS011;7584;60.468;25.126;2022-11-09T04:31:47;1.57;;;0.97;;
14975;SDS011;7584;60.468;25.126;2022-11-09T04:34:13;1.27;;;0.80;;
14975;SDS011;7584;60.468;25.126;2022-11-09T04:36:38;3.07;;;0.87;;
14975;SDS011;7584;60.468;25.126;2022-11-09T04:39:03;1.23;;;1.00;;
14975;SDS011;7584;60.468;25.126;2022-11-09T04:41:28;1.40;;;1.00;;
14975;SDS011;7584;60.468;25.126;2022-11-09T04:43:54;1.00;;;0.70;;
14975;SDS011;7584;60.468;25.126;2022-11-09T04:46:19;1.87;;;0.70;;
14975;SDS011;7584;60.468;25.126;2022-11-09T04:48:44;1.17;;;0.87;;
14975;SDS011;7584;60.468;25.126;2022-11-09T04:51:10;2.20;;;0.80;;
14975;SDS011;7584;60.468;25.126;2022-11-09T04:53:35;1.87;;;1.53;;
14975;SDS011;7584;60.468;25.126;2022-11-09T04:56:01;0.80;;;0.80;;
14975;SDS011;7584;60.468;25.126;2022-11-09T04:58:27;1.60;;;0.90;;
14975;SDS011;7584;60.468;25.126;2022-11-09T05:00:52;1.13;;;1.00;;
14975;SDS011;7584;60.468;25.126;2022-11-09T05:03:18;2.00;;;1.30;;
14975;SDS011;7584;60.468;25.126;2022-11-09T05:05:44;0.83;;;0.70;;
14975;SDS011;7584;60.468;25.126;2022-11-09T05:08:09;1.50;;;1.40;;
14975;SDS011;7584;60.468;25.126;2022-11-09T05:10:35;2.60;;;1.80;;
14975;SDS011;7584;60.468;25.126;2022-11-09T05:13:01;2.83;;;1.70;;
14975;SDS011;7584;60.468;25.126;2022-11-09T05:15:27;5.47;;;2.73;;
14975;SDS011;7584;60.468;25.126;2022-11-09T05:17:52;9.37;;;5.70;;
14975;SDS011;7584;60.468;25.126;2022-11-09T05:20:18;2.60;;;1.90;;
14975;SDS011;7584;60.468;25.126;2022-11-09T05:22:43;4.50;;;2.97;;
14975;SDS011;7584;60.468;25.126;2022-11-09T05:25:27;4.00;;;1.80;;
14975;SDS011;7584;60.468;25.126;2022-11-09T05:27:52;3.40;;;1.50;;
14975;SDS011;7584;60.468;25.126;2022-11-09T05:30:18;1.13;;;0.83;;
14975;SDS011;7584;60.468;25.126;2022-11-09T05:32:43;1.00;;;0.60;;
14975;SDS011;7584;60.468;25.126;2022-11-09T05:35:08;1.33;;;0.60;;
14975;SDS011;7584;60.468;25.126;2022-11-09T05:37:34;0.60;;;0.60;;
14975;SDS011;7584;60.468;25.126;2022-11-09T05:39:59;1.67;;;0.70;;
14975;SDS011;7584;60.468;25.126;2022-11-09T05:42:24;2.60;;;1.00;;
14975;SDS011;7584;60.468;25.126;2022-11-09T05:44:50;8.77;;;2.97;;
14975;SDS011;7584;60.468;25.126;2022-11-09T05:47:15;17.23;;;6.93;;
14975;SDS011;7584;60.468;25.126;2022-11-09T05:49:40;4.00;;;2.00;;
14975;SDS011;7584;60.468;25.126;2022-11-09T05:52:06;4.60;;;1.63;;
14975;SDS011;7584;60.468;25.126;2022-11-09T05:54:31;3.27;;;1.47;;
14975;SDS011;7584;60.468;25.126;2022-11-09T05:56:56;1.27;;;0.90;;
14975;SDS011;7584;60.468;25.126;2022-11-09T05:59:21;0.70;;;0.70;;
14975;SDS011;7584;60.468;25.126;2022-11-09T06:01:47;1.63;;;1.13;;
14975;SDS011;7584;60.468;25.126;2022-11-09T06:04:16;2.77;;;0.73;;
14975;SDS011;7584;60.468;25.126;2022-11-09T06:06:43;0.83;;;0.80;;
14975;SDS011;7584;60.468;25.126;2022-11-09T06:09:08;1.13;;;0.83;;
14975;SDS011;7584;60.468;25.126;2022-11-09T06:11:33;2.07;;;0.90;;
14975;SDS011;7584;60.468;25.126;2022-11-09T06:13:58;1.60;;;1.00;;
14975;SDS011;7584;60.468;25.126;2022-11-09T06:16:24;0.60;;;0.50;;
14975;SDS011;7584;60.468;25.126;2022-11-09T06:18:49;1.13;;;0.70;;
14975;SDS011;7584;60.468;25.126;2022-11-09T06:21:14;0.97;;;0.80;;
14975;SDS011;7584;60.468;25.126;2022-11-09T06:23:40;1.33;;;0.93;;
14975;SDS011;7584;60.468;25.126;2022-11-09T06:26:09;7.37;;;3.70;;
14975;SDS011;7584;60.468;25.126;2022-11-09T06:28:36;1.97;;;1.30;;
14975;SDS011;7584;60.468;25.126;2022-11-09T06:31:02;1.77;;;1.10;;
14975;SDS011;7584;60.468;25.126;2022-11-09T06:33:31;1.30;;;1.10;;
14975;SDS011;7584;60.468;25.126;2022-11-09T06:35:56;3.40;;;0.97;;
14975;SDS011;7584;60.468;25.126;2022-11-09T06:38:22;1.33;;;1.00;;
14975;SDS011;7584;60.468;25.126;2022-11-09T06:40:51;16.57;;;7.60;;
14975;SDS011;7584;60.468;25.126;2022-11-09T06:43:17;10.03;;;3.70;;
14975;SDS011;7584;60.468;25.126;2022-11-09T06:45:42;5.53;;;2.90;;
14975;SDS011;7584;60.468;25.126;2022-11-09T06:48:08;2.37;;;1.53;;
14975;SDS011;7584;60.468;25.126;2022-11-09T06:50:33;7.27;;;3.80;;
14975;SDS011;7584;60.468;25.126;2022-11-09T06:52:59;6.03;;;3.43;;
14975;SDS011;7584;60.468;25.126;2022-11-09T06:55:25;2.40;;;1.43;;
14975;SDS011;7584;60.468;25.126;2022-11-09T06:57:51;2.70;;;2.00;;
14975;SDS011;7584;60.468;25.126;2022-11-09T07:00:16;4.80;;;3.30;;
14975;SDS011;7584;60.468;25.126;2022-11-09T07:02:42;4.33;;;1.47;;
14975;SDS011;7584;60.468;25.126;2022-11-09T07:05:07;5.90;;;2.93;;
14975;SDS011;7584;60.468;25.126;2022-11-09T07:07:33;7.30;;;3.20;;
14975;SDS011;7584;60.468;25.126;2022-11-09T07:09:58;20.13;;;9.63;;
14975;SDS011;7584;60.468;25.126;2022-11-09T07:12:23;4.50;;;2.50;;
14975;SDS011;7584;60.468;25.126;2022-11-09T07:14:49;3.20;;;2.20;;
14975;SDS011;7584;60.468;25.126;2022-11-09T07:17:14;1.33;;;1.07;;
14975;SDS011;7584;60.468;25.126;2022-11-09T07:19:39;2.37;;;1.57;;
14975;SDS011;7584;60.468;25.126;2022-11-09T07:22:04;1.90;;;1.60;;
14975;SDS011;7584;60.468;25.126;2022-11-09T07:24:30;1.60;;;1.30;;
14975;SDS011;7584;60.468;25.126;2022-11-09T07:26:55;3.03;;;1.30;;
14975;SDS011;7584;60.468;25.126;2022-11-09T07:29:20;1.27;;;1.10;;
14975;SDS011;7584;60.468;25.126;2022-11-09T07:31:45;1.80;;;1.53;;
14975;SDS011;7584;60.468;25.126;2022-11-09T07:34:11;1.40;;;1.30;;
14975;SDS011;7584;60.468;25.126;2022-11-09T07:36:36;1.90;;;1.30;;
14975;SDS011;7584;60.468;25.126;2022-11-09T07:39:02;0.90;;;0.83;;
14975;SDS011;7584;60.468;25.126;2022-11-09T07:41:27;1.40;;;1.10;;
14975;SDS011;7584;60.468;25.126;2022-11-09T07:43:53;2.33;;;1.50;;
14975;SDS011;7584;60.468;25.126;2022-11-09T07:46:18;1.87;;;1.37;;
14975;SDS011;7584;60.468;25.126;2022-11-09T07:48:43;1.20;;;1.03;;
14975;SDS011;7584;60.468;25.126;2022-11-09T07:51:08;2.53;;;1.13;;
14975;SDS011;7584;60.468;25.126;2022-11-09T07:53:34;1.40;;;1.00;;
14975;SDS011;7584;60.468;25.126;2022-11-09T07:56:00;1.30;;;1.03;;
14975;SDS011;7584;60.468;25.126;2022-11-09T07:58:26;1.23;;;1.13;;
14975;SDS011;7584;60.468;25.126;2022-11-09T08:00:51;1.17;;;1.07;;
14975;SDS011;7584;60.468;25.126;2022-11-09T08:03:17;1.57;;;1.30;;
14975;SDS011;7584;60.468;25.126;2022-11-09T08:05:43;1.67;;;1.30;;
14975;SDS011;7584;60.468;25.126;2022-11-09T08:08:09;7.27;;;2.20;;
14975;SDS011;7584;60.468;25.126;2022-11-09T08:10:35;8.87;;;3.93;;
14975;SDS011;7584;60.468;25.126;2022-11-09T08:13:10;22.57;;;9.47;;
14975;SDS011;7584;60.468;25.126;2022-11-09T08:15:36;15.90;;;6.20;;
14975;SDS011;7584;60.468;25.126;2022-11-09T08:18:06;10.60;;;4.70;;
14975;SDS011;7584;60.468;25.126;2022-11-09T08:20:32;7.20;;;3.00;;
14975;SDS011;7584;60.468;25.126;2022-11-09T08:22:57;8.90;;;3.13;;
14975;SDS011;7584;60.468;25.126;2022-11-09T08:25:23;6.90;;;2.83;;
14975;SDS011;7584;60.468;25.126;2022-11-09T08:27:48;9.30;;;2.67;;
14975;SDS011;7584;60.468;25.126;2022-11-09T08:30:14;12.17;;;3.07;;
14975;SDS011;7584;60.468;25.126;2022-11-09T08:32:40;12.03;;;2.40;;
14975;SDS011;7584;60.468;25.126;2022-11-09T08:35:06;10.90;;;2.80;;
14975;SDS011;7584;60.468;25.126;2022-11-09T08:37:34;9.37;;;3.13;;
14975;SDS011;7584;60.468;25.126;2022-11-09T08:39:59;9.80;;;3.10;;
14975;SDS011;7584;60.468;25.126;2022-11-09T08:42:24;23.93;;;4.93;;
14975;SDS011;7584;60.468;25.126;2022-11-09T08:44:49;12.67;;;3.47;;
14975;SDS011;7584;60.468;25.126;2022-11-09T08:47:15;17.07;;;3.93;;
14975;SDS011;7584;60.468;25.126;2022-11-09T08:49:40;20.50;;;4.20;;
14975;SDS011;7584;60.468;25.126;2022-11-09T08:52:07;16.63;;;4.07;;
14975;SDS011;7584;60.468;25.126;2022-11-09T08:54:33;21.20;;;4.77;;
14975;SDS011;7584;60.468;25.126;2022-11-09T08:56:59;29.53;;;5.03;;
14975;SDS011;7584;60.468;25.126;2022-11-09T08:59:25;17.13;;;5.30;;
14975;SDS011;7584;60.468;25.126;2022-11-09T09:01:50;11.63;;;4.57;;
14975;SDS011;7584;60.468;25.126;2022-11-09T09:04:15;16.23;;;5.30;;
14975;SDS011;7584;60.468;25.126;2022-11-09T09:06:40;13.90;;;5.10;;
14975;SDS011;7584;60.468;25.126;2022-11-09T09:09:06;15.97;;;5.53;;
14975;SDS011;7584;60.468;25.126;2022-11-09T09:11:31;15.10;;;5.40;;
14975;SDS011;7584;60.468;25.126;2022-11-09T09:13:56;20.53;;;5.20;;
14975;SDS011;7584;60.468;25.126;2022-11-09T09:16:22;26.87;;;6.60;;
14975;SDS011;7584;60.468;25.126;2022-11-09T09:18:47;29.17;;;7.03;;
14975;SDS011;7584;60.468;25.126;2022-11-09T09:21:12;18.60;;;7.93;;
14975;SDS011;7584;60.468;25.126;2022-11-09T09:23:38;20.60;;;8.30;;
14975;SDS011;7584;60.468;25.126;2022-11-09T09:26:03;44.37;;;12.03;;
14975;SDS011;7584;60.468;25.126;2022-11-09T09:28:29;16.67;;;7.07;;
14975;SDS011;7584;60.468;25.126;2022-11-09T09:30:56;21.37;;;8.70;;
14975;SDS011;7584;60.468;25.126;2022-11-09T09:33:21;27.70;;;10.33;;
14975;SDS011;7584;60.468;25.126;2022-11-09T09:35:47;39.17;;;12.87;;
14975;SDS011;7584;60.468;25.126;2022-11-09T09:38:12;30.60;;;8.77;;
14975;SDS011;7584;60.468;25.126;2022-11-09T09:40:41;20.77;;;8.13;;
14975;SDS011;7584;60.468;25.126;2022-11-09T09:43:14;28.20;;;10.53;;
14975;SDS011;7584;60.468;25.126;2022-11-09T09:45:47;28.63;;;9.50;;
14975;SDS011;7584;60.468;25.126;2022-11-09T09:48:17;26.40;;;10.47;;
14975;SDS011;7584;60.468;25.126;2022-11-09T09:50:49;22.20;;;9.80;;
14975;SDS011;7584;60.468;25.126;2022-11-09T09:55:54;31.23;;;10.83;;
14975;SDS011;7584;60.468;25.126;2022-11-09T09:58:27;40.57;;;10.37;;
14975;SDS011;7584;60.468;25.126;2022-11-09T10:00:55;37.43;;;11.30;;
14975;SDS011;7584;60.468;25.126;2022-11-09T10:03:21;28.30;;;10.17;;
14975;SDS011;7584;60.468;25.126;2022-11-09T10:05:59;33.70;;;10.57;;
14975;SDS011;7584;60.468;25.126;2022-11-09T10:08:50;22.93;;;9.77;;
14975;SDS011;7584;60.468;25.126;2022-11-09T10:26:43;17.17;;;7.47;;
14975;SDS011;7584;60.468;25.126;2022-11-09T10:29:18;14.83;;;7.33;;
14975;SDS011;7584;60.468;25.126;2022-11-09T10:31:45;10.30;;;6.60;;
14975;SDS011;7584;60.468;25.126;2022-11-09T10:34:22;15.23;;;6.10;;
14975;SDS011;7584;60.468;25.126;2022-11-09T10:37:12;8.60;;;4.97;;
14975;SDS011;7584;60.468;25.126;2022-11-09T10:39:38;14.47;;;6.10;;
14975;SDS011;7584;60.468;25.126;2022-11-09T10:42:04;10.33;;;5.70;;
14975;SDS011;7584;60.468;25.126;2022-11-09T10:44:29;9.13;;;5.30;;
14975;SDS011;7584;60.468;25.126;2022-11-09T10:49:26;10.33;;;4.73;;
14975;SDS011;7584;60.468;25.126;2022-11-09T10:51:51;9.83;;;4.17;;
14975;SDS011;7584;60.468;25.126;2022-11-09T10:54:20;5.93;;;4.07;;
14975;SDS011;7584;60.468;25.126;2022-11-09T10:56:47;6.43;;;3.70;;
14975;SDS011;7584;60.468;25.126;2022-11-09T11:01:57;7.87;;;4.20;;
14975;SDS011;7584;60.468;25.126;2022-11-09T11:04:23;5.57;;;3.60;;
14975;SDS011;7584;60.468;25.126;2022-11-09T11:06:49;6.87;;;4.33;;
14975;SDS011;7584;60.468;25.126;2022-11-09T11:09:15;8.77;;;4.33;;
14975;SDS011;7584;60.468;25.126;2022-11-09T11:11:40;7.17;;;3.97;;
14975;SDS011;7584;60.468;25.126;2022-11-09T11:14:22;6.63;;;4.83;;
14975;SDS011;7584;60.468;25.126;2022-11-09T11:16:50;10.00;;;4.53;;
14975;SDS011;7584;60.468;25.126;2022-11-09T11:24:51;13.13;;;4.40;;
14975;SDS011;7584;60.468;25.126;2022-11-09T11:27:22;8.43;;;4.23;;
14975;SDS011;7584;60.468;25.126;2022-11-09T11:32:32;9.33;;;3.67;;
14975;SDS011;7584;60.468;25.126;2022-11-09T11:34:57;6.20;;;3.40;;
14975;SDS011;7584;60.468;25.126;2022-11-09T11:37:29;7.30;;;3.23;;
14975;SDS011;7584;60.468;25.126;2022-11-09T11:40:04;5.73;;;3.27;;
14975;SDS011;7584;60.468;25.126;2022-11-09T11:42:36;5.93;;;3.33;;
14975;SDS011;7584;60.468;25.126;2022-11-09T11:50:22;8.03;;;3.70;;
14975;SDS011;7584;60.468;25.126;2022-11-09T11:53:03;6.33;;;4.00;;
14975;SDS011;7584;60.468;25.126;2022-11-09T11:56:17;11.13;;;4.03;;
14975;SDS011;7584;60.468;25.126;2022-11-09T12:00:53;8.87;;;4.87;;
14975;SDS011;7584;60.468;25.126;2022-11-09T12:10:55;10.83;;;5.57;;
14975;SDS011;7584;60.468;25.126;2022-11-09T12:13:39;8.47;;;4.87;;
14975;SDS011;7584;60.468;25.126;2022-11-09T12:16:07;12.23;;;5.27;;
14975;SDS011;7584;60.468;25.126;2022-11-09T12:21:23;12.10;;;5.30;;
14975;SDS011;7584;60.468;25.126;2022-11-09T12:34:22;14.30;;;6.03;;
14975;SDS011;7584;60.468;25.126;2022-11-09T12:36:55;14.70;;;6.73;;
14975;SDS011;7584;60.468;25.126;2022-11-09T12:42:46;9.20;;;6.37;;
14975;SDS011;7584;60.468;25.126;2022-11-09T12:45:24;12.40;;;6.73;;
14975;SDS011;7584;60.468;25.126;2022-11-09T12:47:51;12.90;;;6.60;;
14975;SDS011;7584;60.468;25.126;2022-11-09T12:50:19;16.73;;;6.90;;
14975;SDS011;7584;60.468;25.126;2022-11-09T12:52:46;14.60;;;6.80;;
14975;SDS011;7584;60.468;25.126;2022-11-09T12:55:13;10.97;;;7.67;;
14975;SDS011;7584;60.468;25.126;2022-11-09T12:57:39;15.27;;;7.80;;
14975;SDS011;7584;60.468;25.126;2022-11-09T13:00:13;15.27;;;7.40;;
14975;SDS011;7584;60.468;25.126;2022-11-09T13:02:55;13.80;;;8.03;;
14975;SDS011;7584;60.468;25.126;2022-11-09T13:05:31;19.10;;;8.37;;
14975;SDS011;7584;60.468;25.126;2022-11-09T13:08:00;12.30;;;8.23;;
14975;SDS011;7584;60.468;25.126;2022-11-09T13:10:27;22.90;;;9.47;;
14975;SDS011;7584;60.468;25.126;2022-11-09T13:15:39;16.70;;;8.13;;
14975;SDS011;7584;60.468;25.126;2022-11-09T13:18:47;12.73;;;8.67;;
14975;SDS011;7584;60.468;25.126;2022-11-09T13:23:47;16.70;;;9.40;;
14975;SDS011;7584;60.468;25.126;2022-11-09T13:31:58;23.40;;;9.60;;
14975;SDS011;7584;60.468;25.126;2022-11-09T13:39:52;16.60;;;9.07;;
14975;SDS011;7584;60.468;25.126;2022-11-09T13:42:27;21.70;;;9.97;;
14975;SDS011;7584;60.468;25.126;2022-11-09T13:45:01;18.17;;;8.97;;
14975;SDS011;7584;60.468;25.126;2022-11-09T13:47:38;24.63;;;9.70;;
14975;SDS011;7584;60.468;25.126;2022-11-09T13:50:17;18.77;;;9.07;;
14975;SDS011;7584;60.468;25.126;2022-11-09T13:52:47;24.17;;;9.70;;
14975;SDS011;7584;60.468;25.126;2022-11-09T13:55:17;16.70;;;9.53;;
14975;SDS011;7584;60.468;25.126;2022-11-09T13:57:46;23.30;;;10.17;;
14975;SDS011;7584;60.468;25.126;2022-11-09T14:00:16;25.67;;;9.53;;
14975;SDS011;7584;60.468;25.126;2022-11-09T14:02:50;20.30;;;8.90;;
14975;SDS011;7584;60.468;25.126;2022-11-09T14:05:23;27.17;;;9.83;;
14975;SDS011;7584;60.468;25.126;2022-11-09T14:07:49;29.53;;;11.00;;
14975;SDS011;7584;60.468;25.126;2022-11-09T14:12:55;26.00;;;9.93;;
14975;SDS011;7584;60.468;25.126;2022-11-09T14:22:43;31.67;;;10.17;;
14975;SDS011;7584;60.468;25.126;2022-11-09T14:25:18;21.80;;;9.77;;
14975;SDS011;7584;60.468;25.126;2022-11-09T14:27:48;18.33;;;9.83;;
14975;SDS011;7584;60.468;25.126;2022-11-09T14:30:22;19.17;;;9.27;;
14975;SDS011;7584;60.468;25.126;2022-11-09T14:32:49;24.03;;;9.70;;
14975;SDS011;7584;60.468;25.126;2022-11-09T14:37:43;22.13;;;9.33;;
14975;SDS011;7584;60.468;25.126;2022-11-09T14:42:51;22.57;;;9.70;;
14975;SDS011;7584;60.468;25.126;2022-11-09T14:45:17;26.93;;;10.60;;
14975;SDS011;7584;60.468;25.126;2022-11-09T14:47:43;21.90;;;9.70;;
14975;SDS011;7584;60.468;25.126;2022-11-09T14:50:14;22.77;;;9.87;;
14975;SDS011;7584;60.468;25.126;2022-11-09T14:52:40;24.67;;;9.87;;
14975;SDS011;7584;60.468;25.126;2022-11-09T14:55:09;18.83;;;10.07;;
14975;SDS011;7584;60.468;25.126;2022-11-09T14:57:35;24.63;;;11.03;;
14975;SDS011;7584;60.468;25.126;2022-11-09T15:00:01;25.07;;;9.77;;
14975;SDS011;7584;60.468;25.126;2022-11-09T15:02:26;23.57;;;10.03;;
14975;SDS011;7584;60.468;25.126;2022-11-09T15:07:20;22.67;;;9.63;;
14975;SDS011;7584;60.468;25.126;2022-11-09T15:09:47;20.50;;;9.43;;
14975;SDS011;7584;60.468;25.126;2022-11-09T15:12:14;20.70;;;9.47;;
14975;SDS011;7584;60.468;25.126;2022-11-09T15:14:39;26.77;;;9.73;;
14975;SDS011;7584;60.468;25.126;2022-11-09T15:19:37;30.60;;;10.53;;
14975;SDS011;7584;60.468;25.126;2022-11-09T15:22:03;22.77;;;9.20;;
14975;SDS011;7584;60.468;25.126;2022-11-09T15:24:28;28.37;;;11.77;;
14975;SDS011;7584;60.468;25.126;2022-11-09T15:29:52;25.27;;;9.20;;
14975;SDS011;7584;60.468;25.126;2022-11-09T15:32:17;18.63;;;8.33;;
14975;SDS011;7584;60.468;25.126;2022-11-09T15:34:51;21.03;;;8.73;;
14975;SDS011;7584;60.468;25.126;2022-11-09T15:37:18;20.07;;;9.57;;
14975;SDS011;7584;60.468;25.126;2022-11-09T15:39:43;27.07;;;9.73;;
14975;SDS011;7584;60.468;25.126;2022-11-09T15:42:11;17.57;;;8.90;;
14975;SDS011;7584;60.468;25.126;2022-11-09T15:44:37;26.33;;;9.20;;
14975;SDS011;7584;60.468;25.126;2022-11-09T15:47:03;17.13;;;8.57;;
14975;SDS011;7584;60.468;25.126;2022-11-09T15:49:39;19.07;;;9.50;;
14975;SDS011;7584;60.468;25.126;2022-11-09T15:52:04;20.57;;;8.60;;
14975;SDS011;7584;60.468;25.126;2022-11-09T15:54:30;24.53;;;8.20;;
14975;SDS011;7584;60.468;25.126;2022-11-09T15:56:57;22.57;;;8.93;;
14975;SDS011;7584;60.468;25.126;2022-11-09T15:59:23;21.67;;;8.70;;
14975;SDS011;7584;60.468;25.126;2022-11-09T16:01:49;26.90;;;11.87;;
14975;SDS011;7584;60.468;25.126;2022-11-09T16:04:14;29.50;;;10.50;;
14975;SDS011;7584;60.468;25.126;2022-11-09T16:06:40;20.87;;;9.37;;
14975;SDS011;7584;60.468;25.126;2022-11-09T16:09:05;22.10;;;9.13;;
14975;SDS011;7584;60.468;25.126;2022-11-09T16:11:30;20.23;;;9.20;;
14975;SDS011;7584;60.468;25.126;2022-11-09T16:13:58;20.60;;;8.30;;
14975;SDS011;7584;60.468;25.126;2022-11-09T16:16:23;30.10;;;9.37;;
14975;SDS011;7584;60.468;25.126;2022-11-09T16:18:48;25.20;;;8.90;;
14975;SDS011;7584;60.468;25.126;2022-11-09T16:21:15;23.17;;;9.80;;
14975;SDS011;7584;60.468;25.126;2022-11-09T16:23:40;24.90;;;9.13;;
14975;SDS011;7584;60.468;25.126;2022-11-09T16:26:06;23.53;;;9.23;;